Time;durP1;ratioP1;P1;durP2;ratioP2;P2;SDS_P1;SDS_P2;PMS_P1;PMS_P2;Temp;Humidity;BMP_temperature;BMP_pressure;BME280_temperature;BME280_humidity;BME280_pressure;Samples;Min_cycle;Max_cycle;Signal;HPM_P1;HPM_P2
2023/06/03 00:01:34;;;;;;;23.20;6.72;;;;;;;15.53;60.10;101218.63;5015935;28;20092;-63
2023/06/03 00:04:04;;;;;;;27.25;6.40;;;;;;;15.45;60.56;101223.06;5017445;28;20073;-64
2023/06/03 00:06:31;;;;;;;19.30;6.30;;;;;;;15.61;60.48;101220.53;5047932;28;20056;-61
2023/06/03 00:08:59;;;;;;;25.27;6.93;;;;;;;15.34;61.24;101218.97;5017619;28;20065;-63
2023/06/03 00:11:26;;;;;;;18.13;6.40;;;;;;;15.60;61.05;101216.94;5017212;28;20049;-62
2023/06/03 00:13:53;;;;;;;21.58;6.28;;;;;;;15.75;60.76;101218.31;5011573;28;20046;-62
2023/06/03 00:16:22;;;;;;;17.60;6.47;;;;;;;15.66;61.26;101223.13;5007816;28;20053;-62
2023/06/03 00:18:50;;;;;;;24.08;7.20;;;;;;;15.45;62.30;101216.69;5015364;28;20543;-62
2023/06/03 00:21:17;;;;;;;24.30;6.72;;;;;;;15.18;63.35;101219.88;5016324;28;20050;-63
2023/06/03 00:23:45;;;;;;;23.75;6.93;;;;;;;15.50;62.79;101220.09;5016974;28;20049;-62
2023/06/03 00:26:13;;;;;;;23.98;8.07;;;;;;;15.34;63.74;101229.28;5017193;28;20037;-65
2023/06/03 00:28:42;;;;;;;19.98;7.13;;;;;;;14.72;66.32;101220.66;5012390;28;20046;-61
2023/06/03 00:31:10;;;;;;;28.98;7.88;;;;;;;14.93;66.03;101223.53;4997079;28;20053;-63
2023/06/03 00:33:38;;;;;;;27.85;7.82;;;;;;;15.15;65.62;101218.56;4997467;28;20593;-62
2023/06/03 00:36:05;;;;;;;20.73;6.78;;;;;;;14.92;66.40;101221.91;5016679;28;20073;-62
2023/06/03 00:38:33;;;;;;;24.77;7.70;;;;;;;14.90;66.66;101216.69;5015765;28;20144;-61
2023/06/03 00:41:00;;;;;;;22.10;7.70;;;;;;;14.91;66.78;101215.53;5015933;28;20053;-62
2023/06/03 00:43:27;;;;;;;24.52;7.80;;;;;;;15.01;66.56;101211.63;5016466;28;20069;-62
2023/06/03 00:45:54;;;;;;;27.88;8.25;;;;;;;14.99;66.73;101213.91;4998668;28;20605;-63
2023/06/03 00:48:22;;;;;;;24.40;8.10;;;;;;;14.99;66.98;101200.03;5030476;28;20046;-64
2023/06/03 00:50:49;;;;;;;22.10;7.63;;;;;;;14.90;67.83;101205.59;5047193;28;20045;-62
2023/06/03 00:53:17;;;;;;;26.80;7.50;;;;;;;14.99;67.18;101209.19;5015292;28;20046;-62
2023/06/03 00:55:45;;;;;;;20.75;8.50;;;;;;;14.97;67.27;101210.63;4983054;28;20044;-63
2023/06/03 00:58:12;;;;;;;23.20;8.23;;;;;;;14.88;67.57;101202.34;5031314;28;20042;-63
2023/06/03 01:00:39;;;;;;;21.73;7.45;;;;;;;15.08;67.00;101198.84;5016164;28;20050;-63
2023/06/03 01:03:13;;;;;;;22.27;8.32;;;;;;;15.01;67.29;101190.22;5015110;28;20052;-62
2023/06/03 01:05:45;;;;;;;22.02;8.18;;;;;;;14.78;68.53;101194.38;5015022;28;20058;-62
2023/06/03 01:08:26;;;;;;;25.42;8.85;;;;;;;14.96;67.96;101198.72;4999367;28;20065;-62
2023/06/03 01:11:14;;;;;;;18.63;7.97;;;;;;;14.94;67.77;101192.69;5015808;28;20054;-62
2023/06/03 01:13:47;;;;;;;24.27;8.70;;;;;;;15.16;67.17;101186.09;5006533;28;20053;-65
2023/06/03 01:16:17;;;;;;;20.30;8.77;;;;;;;14.80;68.13;101202.38;5015869;28;20072;-63
2023/06/03 01:18:46;;;;;;;23.67;8.77;;;;;;;14.60;69.26;101184.47;5016078;28;20064;-61
2023/06/03 01:21:14;;;;;;;19.97;8.90;;;;;;;14.59;69.88;101183.63;5015136;28;20050;-62
2023/06/03 01:23:44;;;;;;;31.65;9.43;;;;;;;14.78;69.13;101188.00;5014077;28;20057;-62
2023/06/03 01:26:12;;;;;;;27.13;9.77;;;;;;;14.72;69.50;101189.31;5014737;28;20056;-63
2023/06/03 01:28:39;;;;;;;31.92;9.82;;;;;;;14.56;69.90;101194.56;5014831;28;20050;-62
2023/06/03 01:31:07;;;;;;;27.15;9.32;;;;;;;14.50;70.03;101185.63;5011023;28;20104;-62
2023/06/03 01:33:35;;;;;;;24.75;9.40;;;;;;;14.53;70.29;101193.28;5019604;28;20057;-62
2023/06/03 01:36:04;;;;;;;21.73;9.35;;;;;;;14.71;69.69;101184.94;5013132;28;20045;-62
2023/06/03 01:38:32;;;;;;;20.15;9.38;;;;;;;14.52;70.30;101190.84;5014437;28;20049;-62
2023/06/03 01:41:01;;;;;;;20.52;9.50;;;;;;;14.59;70.25;101182.84;4997364;28;20577;-63
2023/06/03 01:43:30;;;;;;;26.00;9.93;;;;;;;14.73;69.70;101180.69;5010006;28;20566;-62
2023/06/03 01:45:57;;;;;;;23.13;9.35;;;;;;;14.75;69.64;101175.59;5003611;28;20057;-63
2023/06/03 01:48:25;;;;;;;23.13;9.68;;;;;;;14.59;70.11;101185.63;5013092;28;20049;-62
2023/06/03 01:50:53;;;;;;;26.35;9.73;;;;;;;14.29;71.27;101192.16;5027929;28;20054;-64
2023/06/03 01:53:21;;;;;;;23.00;9.05;;;;;;;14.42;70.80;101191.97;5013121;28;20054;-62
2023/06/03 01:55:48;;;;;;;23.13;9.50;;;;;;;14.54;70.38;101185.75;5014996;28;20050;-63
2023/06/03 01:58:17;;;;;;;23.65;9.30;;;;;;;14.80;69.62;101186.56;5026724;28;20391;-62
2023/06/03 02:00:45;;;;;;;26.33;9.68;;;;;;;14.84;69.42;101183.91;5013954;28;20060;-62
2023/06/03 02:03:12;;;;;;;27.13;10.00;;;;;;;14.16;71.92;101193.09;5014974;28;20042;-62
2023/06/03 02:05:41;;;;;;;25.42;10.77;;;;;;;14.17;72.67;101194.75;5029140;28;20445;-62
2023/06/03 02:08:09;;;;;;;32.83;10.82;;;;;;;14.27;72.41;101183.34;5029131;28;20069;-62
2023/06/03 02:10:36;;;;;;;24.58;10.40;;;;;;;14.28;72.58;101187.75;5029729;28;20054;-62
2023/06/03 02:13:04;;;;;;;25.88;11.85;;;;;;;14.08;73.41;101191.16;5014438;28;20038;-63
2023/06/03 02:15:32;;;;;;;33.83;11.10;;;;;;;14.11;73.46;101184.94;5015678;28;20054;-62
2023/06/03 02:17:59;;;;;;;27.45;10.82;;;;;;;14.15;73.32;101191.47;5014750;28;20184;-62
2023/06/03 02:20:27;;;;;;;35.17;11.98;;;;;;;14.03;74.19;101185.78;5026516;28;20050;-62
2023/06/03 02:22:54;;;;;;;25.45;11.40;;;;;;;14.06;73.80;101187.88;4999278;28;20425;-62
2023/06/03 02:25:22;;;;;;;28.88;12.40;;;;;;;14.10;73.94;101175.03;5046901;28;20057;-62
2023/06/03 02:27:50;;;;;;;25.23;10.95;;;;;;;14.27;73.57;101180.59;5029676;28;20498;-62
2023/06/03 02:30:17;;;;;;;27.75;10.82;;;;;;;13.90;74.74;101190.31;5013328;28;20058;-62
2023/06/03 02:32:45;;;;;;;27.67;12.00;;;;;;;13.87;75.36;101188.19;5012824;28;20038;-63
2023/06/03 02:35:13;;;;;;;28.40;12.20;;;;;;;13.86;75.38;101180.22;5045919;28;20049;-62
2023/06/03 02:37:40;;;;;;;25.92;11.82;;;;;;;13.94;75.17;101171.09;5012021;28;20050;-63
2023/06/03 02:40:09;;;;;;;30.25;11.75;;;;;;;13.95;75.04;101179.06;5045839;28;20081;-62
2023/06/03 02:42:37;;;;;;;29.73;11.77;;;;;;;13.74;76.36;101183.59;5009533;28;20049;-61
2023/06/03 02:45:05;;;;;;;32.78;11.70;;;;;;;13.72;76.34;101182.31;4994775;28;20065;-61
2023/06/03 02:47:33;;;;;;;25.67;11.93;;;;;;;13.76;76.60;101195.19;5009263;28;20058;-63
2023/06/03 02:50:00;;;;;;;24.40;12.55;;;;;;;13.54;77.27;101185.06;5013796;28;20045;-63
2023/06/03 02:52:29;;;;;;;26.63;12.10;;;;;;;13.42;78.53;101184.03;5045855;28;20054;-61
2023/06/03 02:54:56;;;;;;;24.77;11.60;;;;;;;13.85;77.25;101181.34;5029462;28;20065;-62
2023/06/03 02:57:24;;;;;;;30.58;12.32;;;;;;;13.92;76.78;101179.72;5013619;28;20050;-61
2023/06/03 02:59:51;;;;;;;26.35;11.65;;;;;;;13.82;76.76;101182.00;5014400;28;20058;-61
2023/06/03 03:02:21;;;;;;;23.83;11.85;;;;;;;13.79;76.86;101183.44;5013827;28;20045;-61
2023/06/03 03:04:49;;;;;;;33.83;13.73;;;;;;;13.93;76.58;101191.63;4999564;28;20057;-62
2023/06/03 03:07:17;;;;;;;32.17;12.40;;;;;;;13.67;77.31;101180.50;5012761;28;20057;-62
2023/06/03 03:09:45;;;;;;;29.90;11.95;;;;;;;13.78;77.75;101179.06;5008520;28;20598;-61
2023/06/03 03:12:13;;;;;;;26.05;12.93;;;;;;;13.95;76.70;101181.84;5010667;28;20066;-62
2023/06/03 03:14:44;;;;;;;31.67;12.20;;;;;;;13.77;76.99;101177.44;5028914;28;20054;-62
2023/06/03 03:17:12;;;;;;;36.90;13.48;;;;;;;13.65;77.80;101174.47;5012432;28;20061;-62
2023/06/03 03:19:39;;;;;;;28.42;13.40;;;;;;;13.69;77.88;101178.22;4995781;28;20057;-62
2023/06/03 03:22:07;;;;;;;35.90;13.55;;;;;;;13.62;78.24;101185.38;5029268;28;20516;-63
2023/06/03 03:24:35;;;;;;;31.70;12.77;;;;;;;13.53;78.44;101177.03;5013366;28;20064;-63
2023/06/03 03:27:03;;;;;;;32.00;13.18;;;;;;;13.55;78.46;101181.13;5012586;28;20072;-63
2023/06/03 03:29:33;;;;;;;31.15;13.55;;;;;;;13.60;78.47;101184.91;4996293;28;20064;-62
2023/06/03 03:32:07;;;;;;;28.02;11.75;;;;;;;13.74;77.90;101177.28;5007445;28;20061;-61
2023/06/03 03:34:38;;;;;;;23.05;12.93;;;;;;;13.73;77.01;101186.69;4993232;28;20050;-62
2023/06/03 03:37:09;;;;;;;31.50;12.90;;;;;;;13.72;77.04;101179.53;5012533;28;20064;-62
2023/06/03 03:39:38;;;;;;;32.55;12.90;;;;;;;13.74;77.43;101180.03;5019362;28;20069;-62
2023/06/03 03:42:06;;;;;;;30.98;12.35;;;;;;;13.74;77.08;101174.50;5031072;28;20100;-61
2023/06/03 03:44:34;;;;;;;25.60;12.13;;;;;;;13.65;77.33;101190.28;4996180;28;20508;-61
2023/06/03 03:47:01;;;;;;;27.63;12.38;;;;;;;13.71;76.82;101180.66;5012008;28;20521;-61
2023/06/03 03:49:34;;;;;;;21.67;11.65;;;;;;;13.93;75.97;101191.63;4979312;28;20061;-61
2023/06/03 03:52:05;;;;;;;23.95;11.85;;;;;;;14.17;75.01;101178.13;5011931;28;20060;-62
2023/06/03 03:54:38;;;;;;;29.38;12.02;;;;;;;14.24;74.22;101182.00;5011950;28;20057;-62
2023/06/03 03:57:13;;;;;;;30.20;11.90;;;;;;;14.02;74.94;101195.19;5011802;28;20081;-62
2023/06/03 03:59:47;;;;;;;37.78;13.35;;;;;;;13.75;76.13;101193.56;5024774;28;20060;-62
2023/06/03 04:02:16;;;;;;;25.38;11.52;;;;;;;13.57;77.01;101197.41;4991282;28;20069;-62
2023/06/03 04:04:44;;;;;;;27.33;12.20;;;;;;;13.58;76.87;101197.09;5008520;28;20045;-62
2023/06/03 04:07:17;;;;;;;29.95;11.60;;;;;;;13.97;75.42;101187.06;5025996;28;20497;-62
2023/06/03 04:09:45;;;;;;;24.30;12.18;;;;;;;13.96;75.06;101193.75;4992030;28;20061;-62
2023/06/03 04:12:33;;;;;;;22.08;12.10;;;;;;;13.93;75.34;101189.66;5012544;28;20041;-61
2023/06/03 04:15:03;;;;;;;30.65;12.57;;;;;;;13.81;76.70;101191.44;5043698;28;20049;-62
2023/06/03 04:17:36;;;;;;;29.70;13.43;;;;;;;14.00;76.06;101189.19;5011042;28;20057;-62
2023/06/03 04:20:41;;;;;;;30.23;13.75;;;;;;;13.92;75.73;101190.81;5012116;28;20680;-62
2023/06/03 04:23:15;;;;;;;26.15;12.50;;;;;;;13.63;77.06;101190.59;5008912;28;20046;-62
2023/06/03 04:25:43;;;;;;;28.33;14.15;;;;;;;13.52;77.26;101192.03;5011736;28;20049;-62
2023/06/03 04:28:12;;;;;;;31.45;12.98;;;;;;;13.57;77.64;101187.16;5028583;28;20057;-62
2023/06/03 04:30:41;;;;;;;37.90;13.98;;;;;;;13.46;78.51;101187.75;5043857;28;20050;-62
2023/06/03 04:33:08;;;;;;;31.25;13.85;;;;;;;13.52;78.62;101198.38;5044460;28;20050;-62
2023/06/03 04:35:36;;;;;;;25.05;12.32;;;;;;;13.70;77.86;101192.88;5027459;28;20056;-63
2023/06/03 04:38:03;;;;;;;24.88;12.40;;;;;;;13.84;77.09;101201.88;5010385;28;20042;-63
2023/06/03 04:40:31;;;;;;;30.38;13.13;;;;;;;13.93;76.21;101209.03;4995760;28;20071;-62
2023/06/03 04:43:03;;;;;;;26.55;12.65;;;;;;;13.55;77.87;101205.22;5010288;28;20665;-62
2023/06/03 04:45:33;;;;;;;29.58;12.77;;;;;;;13.77;77.59;101201.53;5012476;28;20493;-62
2023/06/03 04:48:01;;;;;;;31.77;13.00;;;;;;;13.60;77.82;101215.34;5047918;28;20061;-62
2023/06/03 04:50:34;;;;;;;29.03;12.67;;;;;;;13.63;77.66;101209.16;5012321;28;20046;-62
2023/06/03 04:53:04;;;;;;;28.63;14.27;;;;;;;13.43;78.37;101213.31;4995400;28;20046;-62
2023/06/03 04:55:32;;;;;;;32.40;12.77;;;;;;;13.60;78.05;101220.88;5045138;28;20049;-62
2023/06/03 04:58:00;;;;;;;31.33;13.55;;;;;;;13.70;77.39;101213.09;5004119;28;20058;-62
2023/06/03 05:00:29;;;;;;;24.35;12.38;;;;;;;13.92;76.51;101215.72;4995761;28;20050;-62
2023/06/03 05:03:08;;;;;;;26.60;12.48;;;;;;;13.89;75.71;101224.69;4998294;28;20057;-63
2023/06/03 05:05:41;;;;;;;31.40;13.23;;;;;;;13.98;76.06;101227.47;5019558;28;20058;-63
2023/06/03 05:08:10;;;;;;;28.20;12.50;;;;;;;13.92;76.10;101220.44;5047236;28;20065;-63
2023/06/03 05:10:38;;;;;;;28.02;12.70;;;;;;;14.16;75.36;101224.38;5014662;28;20413;-62
2023/06/03 05:13:06;;;;;;;23.52;11.98;;;;;;;13.87;75.75;101226.97;5016472;28;20061;-62
2023/06/03 05:15:35;;;;;;;25.27;12.30;;;;;;;13.79;75.98;101235.25;5047469;28;20379;-62
2023/06/03 05:18:03;;;;;;;29.02;12.63;;;;;;;13.83;75.76;101225.97;5014216;28;20546;-62
2023/06/03 05:20:32;;;;;;;26.50;11.88;;;;;;;13.82;75.68;101231.84;5011406;28;20053;-62
2023/06/03 05:22:59;;;;;;;27.35;12.05;;;;;;;13.77;76.61;101232.81;5000443;28;20057;-62
2023/06/03 05:25:27;;;;;;;26.98;12.95;;;;;;;13.74;76.33;101227.91;5015129;28;20053;-62
2023/06/03 05:27:54;;;;;;;28.63;12.20;;;;;;;14.00;75.57;101226.00;5014325;28;20060;-61
2023/06/03 05:30:32;;;;;;;25.73;11.90;;;;;;;14.04;75.23;101223.41;5014073;28;20045;-61
2023/06/03 05:33:00;;;;;;;27.17;12.35;;;;;;;14.10;74.88;101228.47;5015702;28;20085;-62
2023/06/03 05:35:28;;;;;;;27.13;12.18;;;;;;;14.11;74.69;101223.72;5020041;28;20065;-63
2023/06/03 05:37:55;;;;;;;28.80;12.93;;;;;;;14.05;74.67;101225.03;5030366;28;20053;-62
2023/06/03 05:40:23;;;;;;;29.05;12.95;;;;;;;14.06;74.67;101221.13;5013825;28;20050;-62
2023/06/03 05:42:51;;;;;;;32.45;12.55;;;;;;;14.32;73.57;101221.97;5046860;28;20054;-63
2023/06/03 05:45:20;;;;;;;29.80;12.07;;;;;;;14.01;74.97;101229.59;5011917;28;20042;-63
2023/06/03 05:47:47;;;;;;;28.98;12.82;;;;;;;13.88;75.13;101219.47;5011074;28;20062;-63
2023/06/03 05:50:16;;;;;;;31.63;12.63;;;;;;;13.95;74.96;101217.03;5013598;28;20058;-63
2023/06/03 05:52:44;;;;;;;27.55;11.70;;;;;;;14.29;74.36;101226.25;5047731;28;20045;-63
2023/06/03 05:55:12;;;;;;;24.75;12.38;;;;;;;14.12;74.13;101226.16;5009547;28;20057;-63
2023/06/03 05:57:40;;;;;;;31.23;13.35;;;;;;;14.27;73.94;101233.22;5012119;28;20053;-63
2023/06/03 06:00:09;;;;;;;30.35;12.02;;;;;;;14.31;73.76;101237.78;5013979;28;20046;-63
2023/06/03 06:02:40;;;;;;;28.95;12.52;;;;;;;14.13;74.21;101227.81;5015107;28;20049;-62
2023/06/03 06:05:08;;;;;;;22.85;11.30;;;;;;;14.31;73.76;101225.91;5013803;28;20038;-63
2023/06/03 06:07:36;;;;;;;27.63;12.13;;;;;;;14.25;73.42;101233.53;5010621;28;20049;-63
2023/06/03 06:10:04;;;;;;;29.20;12.27;;;;;;;14.22;73.25;101242.50;5013522;28;20045;-63
2023/06/03 06:12:31;;;;;;;32.03;12.20;;;;;;;14.53;72.62;101232.09;5013234;28;20413;-63
2023/06/03 06:14:59;;;;;;;30.63;12.10;;;;;;;14.57;71.71;101233.03;5013686;28;20049;-63
2023/06/03 06:17:26;;;;;;;25.23;11.50;;;;;;;14.56;72.19;101233.38;5014038;28;20775;-62
2023/06/03 06:19:54;;;;;;;27.48;12.55;;;;;;;14.42;72.42;101235.50;5011357;28;20061;-62
2023/06/03 06:22:21;;;;;;;25.90;12.10;;;;;;;14.22;73.75;101241.69;5012510;28;20053;-63
2023/06/03 06:24:49;;;;;;;29.08;12.27;;;;;;;14.18;74.00;101241.50;5015187;28;20053;-63
2023/06/03 06:27:17;;;;;;;25.38;10.90;;;;;;;14.52;72.93;101237.97;5030414;28;20065;-64
2023/06/03 06:29:45;;;;;;;25.65;11.43;;;;;;;14.77;71.75;101239.09;4997324;28;20053;-62
2023/06/03 06:32:21;;;;;;;27.90;10.68;;;;;;;14.80;71.01;101239.25;5025571;28;20062;-62
2023/06/03 06:34:49;;;;;;;21.02;11.80;;;;;;;14.71;72.00;101234.84;5024754;28;20042;-63
2023/06/03 06:37:18;;;;;;;26.92;10.80;;;;;;;14.88;70.70;101245.91;5012685;28;20188;-62
2023/06/03 06:39:53;;;;;;;21.80;12.23;;;;;;;14.98;70.33;101234.44;5013260;28;20054;-63
2023/06/03 06:42:42;;;;;;;22.77;11.27;;;;;;;14.80;70.73;101232.88;5019064;28;20065;-63
2023/06/03 06:45:28;;;;;;;30.20;11.65;;;;;;;15.09;70.00;101235.75;5010383;28;20049;-63
2023/06/03 06:48:05;;;;;;;30.88;10.90;;;;;;;15.19;69.59;101224.28;5045057;28;20191;-62
2023/06/03 06:50:55;;;;;;;22.52;10.50;;;;;;;15.04;69.66;101222.03;5011964;28;20050;-63
2023/06/03 06:53:28;;;;;;;27.98;11.20;;;;;;;15.15;69.47;101235.22;5013110;28;20054;-63
2023/06/03 06:56:07;;;;;;;28.13;11.40;;;;;;;15.09;68.89;101241.28;5012079;28;20050;-64
2023/06/03 06:58:48;;;;;;;25.80;10.23;;;;;;;14.96;69.45;101243.09;5045379;28;20061;-64
2023/06/03 07:01:15;;;;;;;22.40;10.77;;;;;;;15.02;69.66;101244.56;5012022;28;20058;-63
2023/06/03 07:03:49;;;;;;;20.08;10.02;;;;;;;15.31;68.43;101244.63;5011870;28;20057;-63
2023/06/03 07:06:17;;;;;;;28.15;11.07;;;;;;;15.46;68.07;101246.09;5013292;28;20687;-64
2023/06/03 07:08:47;;;;;;;23.65;10.35;;;;;;;15.16;69.41;101236.88;5011684;28;20057;-64
2023/06/03 07:11:16;;;;;;;32.42;10.90;;;;;;;15.43;68.39;101244.78;5028243;28;20061;-63
2023/06/03 07:13:52;;;;;;;26.88;10.90;;;;;;;15.55;67.71;101239.34;5013306;28;20042;-64
2023/06/03 07:16:22;;;;;;;23.08;10.43;;;;;;;15.58;67.47;101238.69;5012843;28;20410;-64
2023/06/03 07:18:53;;;;;;;22.50;9.98;;;;;;;15.68;66.97;101251.38;4996315;28;20042;-63
2023/06/03 07:21:26;;;;;;;31.85;9.93;;;;;;;15.87;66.95;101235.09;4993194;28;20051;-65
2023/06/03 07:23:57;;;;;;;24.40;9.50;;;;;;;16.04;65.60;101234.16;5012534;28;20137;-63
2023/06/03 07:26:27;;;;;;;18.98;8.98;;;;;;;16.32;65.37;101241.63;5012207;28;20053;-63
2023/06/03 07:28:58;;;;;;;20.35;9.63;;;;;;;16.69;63.38;101235.13;5044485;28;20063;-64
2023/06/03 07:31:27;;;;;;;20.20;10.02;;;;;;;16.81;62.22;101232.38;5016622;28;20060;-63
2023/06/03 07:33:56;;;;;;;24.38;9.57;;;;;;;16.91;61.59;101236.72;5024222;28;20057;-64
2023/06/03 07:36:32;;;;;;;22.83;10.30;;;;;;;17.01;61.01;101227.94;4999434;28;20077;-64
2023/06/03 07:39:10;;;;;;;17.90;8.73;;;;;;;17.27;59.96;101234.03;5026800;28;20053;-64
2023/06/03 07:41:50;;;;;;;22.98;8.48;;;;;;;17.62;59.47;101232.47;4998841;28;20053;-63
2023/06/03 07:44:45;;;;;;;17.35;8.65;;;;;;;17.47;59.00;101237.91;5011089;28;20038;-65
2023/06/03 07:47:15;;;;;;;22.73;8.95;;;;;;;17.91;57.74;101235.00;5021942;28;20050;-63
2023/06/03 07:49:47;;;;;;;25.08;8.65;;;;;;;18.03;56.81;101233.38;5037306;28;20064;-63
2023/06/03 07:52:20;;;;;;;24.50;8.70;;;;;;;17.70;57.94;101241.84;5018812;28;20060;-61
2023/06/03 07:54:48;;;;;;;19.30;8.75;;;;;;;17.86;57.72;101232.44;5012704;28;20050;-62
2023/06/03 07:57:16;;;;;;;19.17;8.10;;;;;;;18.35;55.94;101229.56;5011068;28;20049;-61
2023/06/03 07:59:55;;;;;;;17.58;7.72;;;;;;;18.44;54.87;101230.25;5044630;28;20440;-62
2023/06/03 08:02:22;;;;;;;22.75;8.05;;;;;;;18.41;55.66;101228.19;5023925;28;20052;-61
2023/06/03 08:04:53;;;;;;;25.45;7.60;;;;;;;18.87;54.12;101219.97;5026764;28;20412;-61
2023/06/03 08:07:21;;;;;;;17.95;7.75;;;;;;;18.76;54.24;101226.41;5017406;28;20132;-61
2023/06/03 08:09:48;;;;;;;19.92;7.60;;;;;;;18.70;53.94;101222.25;5007977;28;20057;-62
2023/06/03 08:12:16;;;;;;;24.80;8.35;;;;;;;18.54;54.85;101224.19;4990180;28;20050;-61
2023/06/03 08:14:44;;;;;;;19.05;8.27;;;;;;;18.62;55.53;101231.59;5020250;28;20053;-61
2023/06/03 08:17:13;;;;;;;21.35;7.90;;;;;;;18.70;53.95;101225.03;5016700;28;20054;-63
2023/06/03 08:19:44;;;;;;;21.88;8.05;;;;;;;18.61;54.93;101233.56;5011495;28;20558;-61
2023/06/03 08:22:29;;;;;;;17.40;7.60;;;;;;;18.78;54.44;101227.69;5018288;28;20068;-63
2023/06/03 08:24:56;;;;;;;20.42;7.68;;;;;;;18.79;54.88;101222.91;5023871;28;20057;-61
2023/06/03 08:27:24;;;;;;;16.73;8.00;;;;;;;18.99;54.13;101219.06;5017791;28;20045;-62
2023/06/03 08:29:52;;;;;;;20.17;8.07;;;;;;;18.87;53.38;101208.78;5031445;28;20064;-61
2023/06/03 08:32:19;;;;;;;22.00;7.60;;;;;;;18.50;53.87;101215.69;5027072;28;20053;-61
2023/06/03 08:34:47;;;;;;;19.77;7.85;;;;;;;18.36;55.09;101218.03;5025363;28;20049;-62
2023/06/03 08:37:14;;;;;;;15.32;7.80;;;;;;;18.54;55.02;101218.59;5016710;28;20072;-61
2023/06/03 08:39:41;;;;;;;16.85;8.25;;;;;;;18.44;54.93;101213.53;5027845;28;20049;-62
2023/06/03 08:42:12;;;;;;;17.17;8.00;;;;;;;18.63;55.17;101210.88;5025809;28;20053;-62
2023/06/03 08:44:49;;;;;;;19.75;7.82;;;;;;;18.53;54.27;101214.97;5028135;28;20212;-62
2023/06/03 08:47:36;;;;;;;22.17;7.45;;;;;;;18.54;54.98;101213.84;5027397;28;20142;-63
2023/06/03 08:50:05;;;;;;;21.27;7.57;;;;;;;18.65;54.86;101217.75;5004944;28;20046;-62
2023/06/03 08:52:38;;;;;;;23.45;8.30;;;;;;;18.80;54.63;101205.81;5030923;28;20079;-60
2023/06/03 08:55:06;;;;;;;19.33;8.13;;;;;;;18.90;53.98;101208.06;5018390;28;20045;-62
2023/06/03 08:57:40;;;;;;;17.65;7.65;;;;;;;18.61;54.29;101202.06;5029455;28;20045;-60
2023/06/03 09:00:09;;;;;;;25.52;7.65;;;;;;;18.77;53.75;101198.16;5021923;28;20053;-60
2023/06/03 09:02:38;;;;;;;20.23;7.45;;;;;;;19.04;53.65;101191.69;5025086;28;20045;-62
2023/06/03 09:05:06;;;;;;;16.67;7.10;;;;;;;19.34;52.62;101200.50;5016624;28;20042;-61
2023/06/03 09:07:34;;;;;;;17.15;6.90;;;;;;;19.42;52.49;101190.31;5028927;28;20425;-61
2023/06/03 09:10:03;;;;;;;17.17;7.72;;;;;;;19.48;52.10;101192.47;4980376;28;20607;-60
2023/06/03 09:12:30;;;;;;;14.30;6.80;;;;;;;19.36;51.40;101209.31;5015347;28;20069;-62
2023/06/03 09:14:58;;;;;;;17.20;6.72;;;;;;;19.42;51.62;101202.28;5047134;28;20046;-62
2023/06/03 09:17:27;;;;;;;18.75;6.82;;;;;;;19.33;51.44;101204.47;5011012;28;20269;-62
2023/06/03 09:19:57;;;;;;;22.30;7.30;;;;;;;19.11;52.67;101198.66;5014637;28;20056;-62
2023/06/03 09:22:25;;;;;;;20.50;6.75;;;;;;;19.39;52.00;101205.81;5015347;28;20041;-62
2023/06/03 09:24:53;;;;;;;13.70;6.30;;;;;;;19.60;50.88;101200.75;5020069;28;20049;-62
2023/06/03 09:27:21;;;;;;;14.75;6.50;;;;;;;19.43;51.35;101209.50;5018901;28;20050;-63
2023/06/03 09:29:48;;;;;;;17.75;7.20;;;;;;;19.41;51.43;101197.88;5021058;28;20042;-62
2023/06/03 09:32:15;;;;;;;17.50;6.95;;;;;;;19.34;51.19;101191.28;5019478;28;20049;-62
2023/06/03 09:34:43;;;;;;;19.35;6.82;;;;;;;19.51;51.00;101193.75;5013015;28;20045;-62
2023/06/03 09:37:11;;;;;;;11.30;5.32;;;;;;;19.56;50.36;101204.63;5013832;28;20060;-62
2023/06/03 09:39:38;;;;;;;20.17;6.93;;;;;;;19.81;49.67;101209.66;5014628;28;20053;-62
2023/06/03 09:42:06;;;;;;;15.30;5.85;;;;;;;19.75;49.49;101211.09;5015002;28;20053;-61
2023/06/03 09:44:46;;;;;;;16.70;5.63;;;;;;;19.43;50.05;101208.69;5046310;28;20053;-62
2023/06/03 09:47:13;;;;;;;18.45;6.25;;;;;;;19.54;49.30;101210.59;5043167;28;20046;-62
2023/06/03 09:50:01;;;;;;;14.55;5.65;;;;;;;19.64;49.71;101198.84;5015366;28;20061;-61
2023/06/03 09:52:32;;;;;;;13.77;5.53;;;;;;;19.78;49.46;101202.00;5016197;28;20045;-61
2023/06/03 09:55:01;;;;;;;19.75;5.93;;;;;;;19.77;48.86;101200.34;5010405;28;20057;-63
2023/06/03 09:57:29;;;;;;;16.05;5.60;;;;;;;20.05;49.01;101211.38;5008590;28;20398;-66
2023/06/03 10:00:11;;;;;;;22.52;6.00;;;;;;;20.08;48.18;101197.47;5010654;28;20069;-62
2023/06/03 10:02:40;;;;;;;11.48;5.43;;;;;;;19.90;48.31;101190.69;5015223;28;20072;-63
2023/06/03 10:05:27;;;;;;;18.30;5.25;;;;;;;19.95;48.65;101197.97;5013226;28;20050;-62
2023/06/03 10:07:55;;;;;;;17.13;5.47;;;;;;;19.83;49.40;101190.53;5014274;28;20061;-62
2023/06/03 10:10:23;;;;;;;10.27;5.07;;;;;;;20.00;48.55;101183.69;5035438;28;20421;-63
2023/06/03 10:12:51;;;;;;;15.50;5.88;;;;;;;20.22;48.49;101187.81;5013157;28;20121;-62
2023/06/03 10:15:38;;;;;;;13.82;5.32;;;;;;;20.33;47.79;101192.44;5040124;28;20046;-63
2023/06/03 10:18:07;;;;;;;16.65;5.32;;;;;;;20.17;47.88;101186.91;5011307;28;20057;-63
2023/06/03 10:20:34;;;;;;;17.27;5.40;;;;;;;20.40;47.92;101187.00;5011990;28;20064;-62
2023/06/03 10:23:03;;;;;;;18.33;5.60;;;;;;;20.41;48.01;101187.81;5040934;28;20049;-63
2023/06/03 10:25:32;;;;;;;17.15;5.95;;;;;;;20.31;47.58;101177.22;5036426;28;20060;-64
2023/06/03 10:28:00;;;;;;;17.38;6.05;;;;;;;20.28;47.91;101184.34;5015531;28;20058;-62
2023/06/03 10:30:27;;;;;;;11.48;5.15;;;;;;;20.51;47.51;101178.84;5014020;28;20045;-61
2023/06/03 10:32:57;;;;;;;11.77;5.10;;;;;;;20.61;46.60;101183.81;5011814;28;20057;-62
2023/06/03 10:35:25;;;;;;;17.58;5.47;;;;;;;20.68;46.63;101181.16;5005609;28;20060;-62
2023/06/03 10:37:53;;;;;;;13.40;5.00;;;;;;;20.74;45.36;101185.31;5009325;28;20158;-63
2023/06/03 10:40:21;;;;;;;14.85;4.50;;;;;;;20.67;44.53;101177.59;5039582;28;20523;-61
2023/06/03 10:42:49;;;;;;;11.68;5.43;;;;;;;20.76;44.18;101180.16;5012249;28;20052;-62
2023/06/03 10:45:17;;;;;;;11.07;5.57;;;;;;;20.72;44.11;101177.28;5012583;28;20121;-62
2023/06/03 10:47:44;;;;;;;12.07;5.00;;;;;;;20.58;44.75;101176.19;5013101;28;20057;-62
2023/06/03 10:50:40;;;;;;;15.55;5.28;;;;;;;20.61;44.08;101192.22;5028517;28;20045;-62
2023/06/03 10:53:23;;;;;;;10.38;4.80;;;;;;;20.60;44.32;101174.66;5012128;28;20593;-62
2023/06/03 10:56:01;;;;;;;14.48;5.72;;;;;;;20.92;43.85;101166.84;5040217;28;20042;-63
2023/06/03 10:58:29;;;;;;;13.27;5.10;;;;;;;21.01;43.29;101168.25;5012364;28;20064;-62
2023/06/03 11:00:59;;;;;;;11.15;4.50;;;;;;;20.94;43.13;101176.50;5012154;28;20052;-62
2023/06/03 11:03:28;;;;;;;14.73;4.78;;;;;;;20.97;43.00;101180.56;5013853;28;20054;-62
2023/06/03 11:06:26;;;;;;;14.57;5.07;;;;;;;20.85;42.37;101175.91;5044234;28;20624;-61
2023/06/03 11:09:02;;;;;;;12.50;5.18;;;;;;;20.79;42.46;101168.19;5011732;28;20401;-61
2023/06/03 11:12:04;;;;;;;18.48;5.20;;;;;;;20.89;43.38;101173.19;5019314;28;20054;-64
2023/06/03 11:14:38;;;;;;;11.93;5.05;;;;;;;20.94;43.47;101156.06;5010172;28;20438;-62
2023/06/03 11:17:05;;;;;;;13.13;4.80;;;;;;;21.21;42.77;101169.81;5020788;28;20050;-62
2023/06/03 11:19:56;;;;;;;17.02;5.80;;;;;;;21.18;43.09;101161.34;5012568;28;20064;-61
2023/06/03 11:22:26;;;;;;;15.82;5.28;;;;;;;21.33;43.08;101168.81;5017294;28;20053;-62
2023/06/03 11:24:55;;;;;;;10.63;5.20;;;;;;;21.44;42.30;101160.56;5023311;28;20045;-63
2023/06/03 11:27:23;;;;;;;16.50;5.57;;;;;;;21.46;42.55;101169.44;5012043;28;20050;-63
2023/06/03 11:29:51;;;;;;;13.68;4.97;;;;;;;21.40;42.35;101171.72;5011541;28;20610;-61